sensor_id;sensor_type;location;lat;lon;timestamp;P1;durP1;ratioP1;P2;durP2;ratioP2
17059;SDS011;8646;49.716;9.266;2024-02-21T00:00:00;18.07;;;4.90;;
17059;SDS011;8646;49.716;9.266;2024-02-21T00:03:03;15.27;;;5.17;;
17059;SDS011;8646;49.716;9.266;2024-02-21T00:06:06;21.43;;;5.53;;
17059;SDS011;8646;49.716;9.266;2024-02-21T00:09:10;14.67;;;4.60;;
17059;SDS011;8646;49.716;9.266;2024-02-21T00:12:13;16.17;;;3.90;;
17059;SDS011;8646;49.716;9.266;2024-02-21T00:15:16;12.50;;;3.93;;
17059;SDS011;8646;49.716;9.266;2024-02-21T00:18:18;14.70;;;4.10;;
17059;SDS011;8646;49.716;9.266;2024-02-21T00:21:21;16.57;;;4.77;;
17059;SDS011;8646;49.716;9.266;2024-02-21T00:24:25;22.83;;;4.37;;
17059;SDS011;8646;49.716;9.266;2024-02-21T00:27:28;14.30;;;4.03;;
17059;SDS011;8646;49.716;9.266;2024-02-21T00:30:31;16.13;;;3.53;;
17059;SDS011;8646;49.716;9.266;2024-02-21T00:33:33;20.57;;;3.97;;
17059;SDS011;8646;49.716;9.266;2024-02-21T00:36:36;13.90;;;3.97;;
17059;SDS011;8646;49.716;9.266;2024-02-21T00:39:40;22.50;;;4.43;;
17059;SDS011;8646;49.716;9.266;2024-02-21T00:42:43;15.77;;;5.30;;
17059;SDS011;8646;49.716;9.266;2024-02-21T00:45:47;17.83;;;4.53;;
17059;SDS011;8646;49.716;9.266;2024-02-21T00:48:49;15.47;;;4.07;;
17059;SDS011;8646;49.716;9.266;2024-02-21T00:51:52;14.57;;;3.80;;
17059;SDS011;8646;49.716;9.266;2024-02-21T00:54:56;15.50;;;4.10;;
17059;SDS011;8646;49.716;9.266;2024-02-21T00:57:59;9.97;;;3.33;;
17059;SDS011;8646;49.716;9.266;2024-02-21T01:01:02;17.47;;;4.00;;
17059;SDS011;8646;49.716;9.266;2024-02-21T01:04:05;18.87;;;3.80;;
17059;SDS011;8646;49.716;9.266;2024-02-21T01:07:08;13.57;;;3.60;;
17059;SDS011;8646;49.716;9.266;2024-02-21T01:10:12;12.37;;;3.77;;
17059;SDS011;8646;49.716;9.266;2024-02-21T01:13:15;11.27;;;3.23;;
17059;SDS011;8646;49.716;9.266;2024-02-21T01:16:18;16.00;;;3.43;;
17059;SDS011;8646;49.716;9.266;2024-02-21T01:19:20;19.40;;;4.10;;
17059;SDS011;8646;49.716;9.266;2024-02-21T01:22:23;12.70;;;4.10;;
17059;SDS011;8646;49.716;9.266;2024-02-21T01:25:27;14.43;;;3.90;;
17059;SDS011;8646;49.716;9.266;2024-02-21T01:28:30;12.53;;;3.43;;
17059;SDS011;8646;49.716;9.266;2024-02-21T01:31:33;11.23;;;3.10;;
17059;SDS011;8646;49.716;9.266;2024-02-21T01:34:36;14.80;;;3.50;;
17059;SDS011;8646;49.716;9.266;2024-02-21T01:37:39;18.43;;;3.70;;
17059;SDS011;8646;49.716;9.266;2024-02-21T01:40:43;10.30;;;2.87;;
17059;SDS011;8646;49.716;9.266;2024-02-21T01:43:46;12.83;;;3.30;;
17059;SDS011;8646;49.716;9.266;2024-02-21T01:46:49;15.87;;;3.77;;
17059;SDS011;8646;49.716;9.266;2024-02-21T01:49:53;20.37;;;4.50;;
17059;SDS011;8646;49.716;9.266;2024-02-21T01:52:55;15.77;;;3.57;;
17059;SDS011;8646;49.716;9.266;2024-02-21T01:56:00;14.60;;;3.47;;
17059;SDS011;8646;49.716;9.266;2024-02-21T01:59:04;15.63;;;3.73;;
17059;SDS011;8646;49.716;9.266;2024-02-21T02:02:06;14.23;;;3.17;;
17059;SDS011;8646;49.716;9.266;2024-02-21T02:05:09;14.70;;;3.43;;
17059;SDS011;8646;49.716;9.266;2024-02-21T02:08:13;11.87;;;3.40;;
17059;SDS011;8646;49.716;9.266;2024-02-21T02:11:17;15.33;;;3.53;;
17059;SDS011;8646;49.716;9.266;2024-02-21T02:14:21;24.47;;;3.87;;
17059;SDS011;8646;49.716;9.266;2024-02-21T02:17:24;15.17;;;3.40;;
17059;SDS011;8646;49.716;9.266;2024-02-21T02:20:27;11.50;;;3.30;;
17059;SDS011;8646;49.716;9.266;2024-02-21T02:23:31;11.50;;;3.60;;
17059;SDS011;8646;49.716;9.266;2024-02-21T02:26:34;11.43;;;3.27;;
17059;SDS011;8646;49.716;9.266;2024-02-21T02:29:37;11.33;;;2.80;;
17059;SDS011;8646;49.716;9.266;2024-02-21T02:32:43;11.60;;;3.23;;
17059;SDS011;8646;49.716;9.266;2024-02-21T02:35:47;14.23;;;3.37;;
17059;SDS011;8646;49.716;9.266;2024-02-21T02:38:51;12.57;;;2.80;;
17059;SDS011;8646;49.716;9.266;2024-02-21T02:41:53;15.90;;;3.20;;
17059;SDS011;8646;49.716;9.266;2024-02-21T02:44:56;13.80;;;3.30;;
17059;SDS011;8646;49.716;9.266;2024-02-21T02:47:59;11.20;;;2.87;;
17059;SDS011;8646;49.716;9.266;2024-02-21T02:51:02;15.77;;;3.57;;
17059;SDS011;8646;49.716;9.266;2024-02-21T02:54:06;12.97;;;2.83;;
17059;SDS011;8646;49.716;9.266;2024-02-21T02:57:09;15.93;;;3.23;;
17059;SDS011;8646;49.716;9.266;2024-02-21T03:00:12;14.50;;;2.80;;
17059;SDS011;8646;49.716;9.266;2024-02-21T03:03:16;10.77;;;2.93;;
17059;SDS011;8646;49.716;9.266;2024-02-21T03:06:19;7.93;;;2.40;;
17059;SDS011;8646;49.716;9.266;2024-02-21T03:09:23;13.50;;;3.00;;
17059;SDS011;8646;49.716;9.266;2024-02-21T03:12:26;13.97;;;3.00;;
17059;SDS011;8646;49.716;9.266;2024-02-21T03:15:30;11.13;;;3.00;;
17059;SDS011;8646;49.716;9.266;2024-02-21T03:18:33;13.63;;;3.40;;
17059;SDS011;8646;49.716;9.266;2024-02-21T03:21:35;13.67;;;3.30;;
17059;SDS011;8646;49.716;9.266;2024-02-21T03:24:39;15.80;;;3.40;;
17059;SDS011;8646;49.716;9.266;2024-02-21T03:27:42;12.30;;;3.50;;
17059;SDS011;8646;49.716;9.266;2024-02-21T03:30:45;10.90;;;3.00;;
17059;SDS011;8646;49.716;9.266;2024-02-21T03:33:48;17.40;;;3.60;;
17059;SDS011;8646;49.716;9.266;2024-02-21T03:36:50;12.57;;;3.00;;
17059;SDS011;8646;49.716;9.266;2024-02-21T03:39:54;11.70;;;3.40;;
17059;SDS011;8646;49.716;9.266;2024-02-21T03:42:57;13.10;;;3.23;;
17059;SDS011;8646;49.716;9.266;2024-02-21T03:46:00;15.30;;;3.50;;
17059;SDS011;8646;49.716;9.266;2024-02-21T03:49:03;11.27;;;3.13;;
17059;SDS011;8646;49.716;9.266;2024-02-21T03:52:06;12.77;;;2.97;;
17059;SDS011;8646;49.716;9.266;2024-02-21T03:55:10;15.43;;;3.30;;
17059;SDS011;8646;49.716;9.266;2024-02-21T03:58:13;15.67;;;3.27;;
17059;SDS011;8646;49.716;9.266;2024-02-21T04:01:16;16.23;;;3.13;;
17059;SDS011;8646;49.716;9.266;2024-02-21T04:04:19;10.23;;;3.37;;
17059;SDS011;8646;49.716;9.266;2024-02-21T04:07:27;16.93;;;4.20;;
17059;SDS011;8646;49.716;9.266;2024-02-21T04:10:32;16.73;;;3.70;;
17059;SDS011;8646;49.716;9.266;2024-02-21T04:13:34;10.07;;;3.43;;
17059;SDS011;8646;49.716;9.266;2024-02-21T04:16:37;18.73;;;4.40;;
17059;SDS011;8646;49.716;9.266;2024-02-21T04:19:41;15.30;;;3.60;;
17059;SDS011;8646;49.716;9.266;2024-02-21T04:22:44;13.00;;;3.53;;
17059;SDS011;8646;49.716;9.266;2024-02-21T04:25:48;14.13;;;3.63;;
17059;SDS011;8646;49.716;9.266;2024-02-21T04:28:51;11.57;;;3.07;;
17059;SDS011;8646;49.716;9.266;2024-02-21T04:31:54;14.87;;;3.17;;
17059;SDS011;8646;49.716;9.266;2024-02-21T04:34:57;14.87;;;3.63;;
17059;SDS011;8646;49.716;9.266;2024-02-21T04:38:00;11.60;;;3.50;;
17059;SDS011;8646;49.716;9.266;2024-02-21T04:41:04;18.03;;;3.47;;
17059;SDS011;8646;49.716;9.266;2024-02-21T04:44:07;15.80;;;4.00;;
17059;SDS011;8646;49.716;9.266;2024-02-21T04:47:10;21.37;;;3.90;;
17059;SDS011;8646;49.716;9.266;2024-02-21T04:50:13;12.67;;;3.73;;
17059;SDS011;8646;49.716;9.266;2024-02-21T04:53:16;21.30;;;3.70;;
17059;SDS011;8646;49.716;9.266;2024-02-21T04:56:20;14.90;;;3.73;;
17059;SDS011;8646;49.716;9.266;2024-02-21T04:59:22;16.63;;;3.80;;
17059;SDS011;8646;49.716;9.266;2024-02-21T05:02:25;13.57;;;3.67;;
17059;SDS011;8646;49.716;9.266;2024-02-21T05:05:28;11.60;;;4.00;;
17059;SDS011;8646;49.716;9.266;2024-02-21T05:08:31;14.27;;;4.70;;
17059;SDS011;8646;49.716;9.266;2024-02-21T05:11:35;20.10;;;5.30;;
17059;SDS011;8646;49.716;9.266;2024-02-21T05:14:39;14.83;;;4.77;;
17059;SDS011;8646;49.716;9.266;2024-02-21T05:17:41;15.17;;;4.70;;
17059;SDS011;8646;49.716;9.266;2024-02-21T05:20:45;15.23;;;4.70;;
17059;SDS011;8646;49.716;9.266;2024-02-21T05:23:47;16.93;;;5.53;;
17059;SDS011;8646;49.716;9.266;2024-02-21T05:26:53;17.40;;;4.80;;
17059;SDS011;8646;49.716;9.266;2024-02-21T05:29:55;17.23;;;4.97;;
17059;SDS011;8646;49.716;9.266;2024-02-21T05:33:03;14.77;;;4.03;;
17059;SDS011;8646;49.716;9.266;2024-02-21T05:36:07;12.70;;;4.30;;
17059;SDS011;8646;49.716;9.266;2024-02-21T05:39:09;18.60;;;4.70;;
17059;SDS011;8646;49.716;9.266;2024-02-21T05:42:13;17.53;;;4.93;;
17059;SDS011;8646;49.716;9.266;2024-02-21T05:45:16;19.50;;;5.77;;
17059;SDS011;8646;49.716;9.266;2024-02-21T05:48:19;21.57;;;6.67;;
17059;SDS011;8646;49.716;9.266;2024-02-21T05:51:22;24.23;;;6.87;;
17059;SDS011;8646;49.716;9.266;2024-02-21T05:54:25;24.30;;;7.87;;
17059;SDS011;8646;49.716;9.266;2024-02-21T05:57:29;20.93;;;6.60;;
17059;SDS011;8646;49.716;9.266;2024-02-21T06:00:32;16.97;;;6.67;;
17059;SDS011;8646;49.716;9.266;2024-02-21T06:03:35;20.87;;;6.70;;
17059;SDS011;8646;49.716;9.266;2024-02-21T06:06:38;22.23;;;7.30;;
17059;SDS011;8646;49.716;9.266;2024-02-21T06:09:41;25.10;;;7.00;;
17059;SDS011;8646;49.716;9.266;2024-02-21T06:12:45;19.47;;;7.13;;
17059;SDS011;8646;49.716;9.266;2024-02-21T06:15:48;16.50;;;6.40;;
17059;SDS011;8646;49.716;9.266;2024-02-21T06:18:51;19.33;;;8.17;;
17059;SDS011;8646;49.716;9.266;2024-02-21T06:21:54;17.33;;;6.23;;
17059;SDS011;8646;49.716;9.266;2024-02-21T06:24:57;24.37;;;6.40;;
17059;SDS011;8646;49.716;9.266;2024-02-21T06:28:01;19.33;;;5.93;;
17059;SDS011;8646;49.716;9.266;2024-02-21T06:31:04;19.70;;;6.00;;
17059;SDS011;8646;49.716;9.266;2024-02-21T06:34:07;15.00;;;5.87;;
17059;SDS011;8646;49.716;9.266;2024-02-21T06:37:10;19.83;;;5.83;;
17059;SDS011;8646;49.716;9.266;2024-02-21T06:40:13;15.80;;;5.67;;
17059;SDS011;8646;49.716;9.266;2024-02-21T06:43:18;17.37;;;4.97;;
17059;SDS011;8646;49.716;9.266;2024-02-21T06:46:24;16.57;;;5.80;;
17059;SDS011;8646;49.716;9.266;2024-02-21T06:49:27;22.97;;;5.70;;
17059;SDS011;8646;49.716;9.266;2024-02-21T06:52:30;17.37;;;6.13;;
17059;SDS011;8646;49.716;9.266;2024-02-21T06:55:33;16.97;;;6.30;;
17059;SDS011;8646;49.716;9.266;2024-02-21T06:58:37;16.67;;;5.93;;
17059;SDS011;8646;49.716;9.266;2024-02-21T07:01:40;22.87;;;8.03;;
17059;SDS011;8646;49.716;9.266;2024-02-21T07:04:47;35.97;;;13.23;;
17059;SDS011;8646;49.716;9.266;2024-02-21T07:07:51;22.50;;;10.33;;
17059;SDS011;8646;49.716;9.266;2024-02-21T07:10:54;24.47;;;10.83;;
17059;SDS011;8646;49.716;9.266;2024-02-21T07:13:58;28.17;;;9.27;;
17059;SDS011;8646;49.716;9.266;2024-02-21T07:17:01;23.37;;;9.10;;
17059;SDS011;8646;49.716;9.266;2024-02-21T07:20:05;21.30;;;9.03;;
17059;SDS011;8646;49.716;9.266;2024-02-21T07:23:09;19.83;;;8.30;;
17059;SDS011;8646;49.716;9.266;2024-02-21T07:26:12;19.93;;;8.70;;
17059;SDS011;8646;49.716;9.266;2024-02-21T07:29:16;24.90;;;8.63;;
17059;SDS011;8646;49.716;9.266;2024-02-21T07:32:19;16.67;;;6.83;;
17059;SDS011;8646;49.716;9.266;2024-02-21T07:35:22;13.73;;;5.60;;
17059;SDS011;8646;49.716;9.266;2024-02-21T07:38:25;19.57;;;5.77;;
17059;SDS011;8646;49.716;9.266;2024-02-21T07:41:27;10.83;;;5.23;;
17059;SDS011;8646;49.716;9.266;2024-02-21T07:44:33;18.57;;;5.40;;
17059;SDS011;8646;49.716;9.266;2024-02-21T07:47:36;12.07;;;5.77;;
17059;SDS011;8646;49.716;9.266;2024-02-21T07:50:39;17.60;;;5.47;;
17059;SDS011;8646;49.716;9.266;2024-02-21T07:53:42;22.17;;;5.60;;
17059;SDS011;8646;49.716;9.266;2024-02-21T07:56:46;19.57;;;6.83;;
17059;SDS011;8646;49.716;9.266;2024-02-21T07:59:50;17.40;;;6.20;;
17059;SDS011;8646;49.716;9.266;2024-02-21T08:02:53;23.20;;;9.93;;
17059;SDS011;8646;49.716;9.266;2024-02-21T08:05:56;17.33;;;6.63;;
17059;SDS011;8646;49.716;9.266;2024-02-21T08:08:59;19.77;;;6.57;;
17059;SDS011;8646;49.716;9.266;2024-02-21T08:12:02;18.57;;;7.90;;
17059;SDS011;8646;49.716;9.266;2024-02-21T08:15:06;15.30;;;5.80;;
17059;SDS011;8646;49.716;9.266;2024-02-21T08:18:12;23.20;;;8.70;;
17059;SDS011;8646;49.716;9.266;2024-02-21T08:21:14;13.50;;;8.43;;
17059;SDS011;8646;49.716;9.266;2024-02-21T08:24:18;12.17;;;4.77;;
17059;SDS011;8646;49.716;9.266;2024-02-21T08:27:20;15.97;;;6.53;;
17059;SDS011;8646;49.716;9.266;2024-02-21T08:30:24;12.53;;;4.50;;
17059;SDS011;8646;49.716;9.266;2024-02-21T08:33:27;14.40;;;4.93;;
17059;SDS011;8646;49.716;9.266;2024-02-21T08:36:31;43.73;;;7.57;;
17059;SDS011;8646;49.716;9.266;2024-02-21T08:39:35;18.17;;;4.40;;
17059;SDS011;8646;49.716;9.266;2024-02-21T08:42:38;14.23;;;3.87;;
17059;SDS011;8646;49.716;9.266;2024-02-21T08:45:43;13.60;;;3.70;;
17059;SDS011;8646;49.716;9.266;2024-02-21T08:48:45;9.00;;;3.57;;
17059;SDS011;8646;49.716;9.266;2024-02-21T08:51:49;18.63;;;4.00;;
17059;SDS011;8646;49.716;9.266;2024-02-21T08:54:52;11.97;;;3.70;;
17059;SDS011;8646;49.716;9.266;2024-02-21T08:57:55;16.30;;;4.13;;
17059;SDS011;8646;49.716;9.266;2024-02-21T09:00:59;13.40;;;3.67;;
17059;SDS011;8646;49.716;9.266;2024-02-21T09:04:01;14.10;;;4.70;;
17059;SDS011;8646;49.716;9.266;2024-02-21T09:07:04;18.67;;;4.33;;
17059;SDS011;8646;49.716;9.266;2024-02-21T09:10:07;13.87;;;3.70;;
17059;SDS011;8646;49.716;9.266;2024-02-21T09:13:11;15.67;;;4.43;;
17059;SDS011;8646;49.716;9.266;2024-02-21T09:16:15;14.27;;;2.70;;
17059;SDS011;8646;49.716;9.266;2024-02-21T09:19:18;9.43;;;2.40;;
17059;SDS011;8646;49.716;9.266;2024-02-21T09:22:21;8.40;;;2.20;;
17059;SDS011;8646;49.716;9.266;2024-02-21T09:25:23;14.30;;;2.90;;
17059;SDS011;8646;49.716;9.266;2024-02-21T09:28:26;9.83;;;2.30;;
17059;SDS011;8646;49.716;9.266;2024-02-21T09:31:30;9.17;;;2.37;;
17059;SDS011;8646;49.716;9.266;2024-02-21T09:34:33;12.63;;;2.63;;
17059;SDS011;8646;49.716;9.266;2024-02-21T09:37:36;16.27;;;2.70;;
17059;SDS011;8646;49.716;9.266;2024-02-21T09:40:39;10.03;;;2.20;;
17059;SDS011;8646;49.716;9.266;2024-02-21T09:43:44;9.03;;;2.23;;
17059;SDS011;8646;49.716;9.266;2024-02-21T09:46:51;7.97;;;2.50;;
17059;SDS011;8646;49.716;9.266;2024-02-21T09:49:57;11.03;;;2.93;;
17059;SDS011;8646;49.716;9.266;2024-02-21T09:53:00;13.00;;;2.47;;
17059;SDS011;8646;49.716;9.266;2024-02-21T09:56:05;12.37;;;2.47;;
17059;SDS011;8646;49.716;9.266;2024-02-21T09:59:15;11.93;;;2.50;;
17059;SDS011;8646;49.716;9.266;2024-02-21T10:02:20;13.40;;;2.73;;
17059;SDS011;8646;49.716;9.266;2024-02-21T10:05:23;7.37;;;2.00;;
17059;SDS011;8646;49.716;9.266;2024-02-21T10:08:27;11.33;;;2.30;;
17059;SDS011;8646;49.716;9.266;2024-02-21T10:11:29;9.87;;;2.10;;
17059;SDS011;8646;49.716;9.266;2024-02-21T10:14:32;12.07;;;2.23;;
17059;SDS011;8646;49.716;9.266;2024-02-21T10:17:36;14.73;;;2.20;;
17059;SDS011;8646;49.716;9.266;2024-02-21T10:20:39;7.57;;;1.93;;
17059;SDS011;8646;49.716;9.266;2024-02-21T10:23:43;9.40;;;1.97;;
17059;SDS011;8646;49.716;9.266;2024-02-21T10:26:46;9.17;;;2.33;;
17059;SDS011;8646;49.716;9.266;2024-02-21T10:29:49;12.93;;;2.90;;
17059;SDS011;8646;49.716;9.266;2024-02-21T10:32:54;14.37;;;2.30;;
17059;SDS011;8646;49.716;9.266;2024-02-21T10:36:05;12.10;;;2.50;;
17059;SDS011;8646;49.716;9.266;2024-02-21T10:39:09;12.07;;;2.97;;
17059;SDS011;8646;49.716;9.266;2024-02-21T10:42:11;7.37;;;2.00;;
17059;SDS011;8646;49.716;9.266;2024-02-21T10:45:14;10.77;;;2.60;;
17059;SDS011;8646;49.716;9.266;2024-02-21T10:48:22;11.00;;;1.90;;
17059;SDS011;8646;49.716;9.266;2024-02-21T10:51:32;11.47;;;2.47;;
17059;SDS011;8646;49.716;9.266;2024-02-21T10:54:39;11.83;;;2.93;;
17059;SDS011;8646;49.716;9.266;2024-02-21T10:57:47;9.90;;;2.97;;
17059;SDS011;8646;49.716;9.266;2024-02-21T11:00:52;15.83;;;3.13;;
17059;SDS011;8646;49.716;9.266;2024-02-21T11:03:57;10.07;;;2.27;;
17059;SDS011;8646;49.716;9.266;2024-02-21T11:07:03;13.70;;;4.40;;
17059;SDS011;8646;49.716;9.266;2024-02-21T11:10:20;13.93;;;5.70;;
17059;SDS011;8646;49.716;9.266;2024-02-21T11:13:30;9.50;;;2.73;;
17059;SDS011;8646;49.716;9.266;2024-02-21T11:16:37;12.53;;;3.27;;
17059;SDS011;8646;49.716;9.266;2024-02-21T11:19:42;17.17;;;4.73;;
17059;SDS011;8646;49.716;9.266;2024-02-21T11:22:46;8.93;;;2.27;;
17059;SDS011;8646;49.716;9.266;2024-02-21T11:25:50;8.93;;;2.10;;
17059;SDS011;8646;49.716;9.266;2024-02-21T11:28:57;12.73;;;4.67;;
17059;SDS011;8646;49.716;9.266;2024-02-21T11:32:01;7.83;;;2.07;;
17059;SDS011;8646;49.716;9.266;2024-02-21T11:35:06;12.73;;;3.00;;
17059;SDS011;8646;49.716;9.266;2024-02-21T11:38:10;10.17;;;2.00;;
17059;SDS011;8646;49.716;9.266;2024-02-21T11:41:16;8.30;;;2.27;;
17059;SDS011;8646;49.716;9.266;2024-02-21T11:44:19;11.50;;;3.10;;
17059;SDS011;8646;49.716;9.266;2024-02-21T11:47:22;7.50;;;1.77;;
17059;SDS011;8646;49.716;9.266;2024-02-21T11:50:27;9.17;;;1.93;;
17059;SDS011;8646;49.716;9.266;2024-02-21T11:53:30;12.27;;;4.93;;
17059;SDS011;8646;49.716;9.266;2024-02-21T11:56:38;5.33;;;2.70;;
17059;SDS011;8646;49.716;9.266;2024-02-21T11:59:41;7.73;;;2.03;;
17059;SDS011;8646;49.716;9.266;2024-02-21T12:02:44;6.47;;;1.67;;
17059;SDS011;8646;49.716;9.266;2024-02-21T12:05:48;7.87;;;2.20;;
17059;SDS011;8646;49.716;9.266;2024-02-21T12:08:52;11.20;;;2.03;;
17059;SDS011;8646;49.716;9.266;2024-02-21T12:12:01;8.83;;;1.60;;
17059;SDS011;8646;49.716;9.266;2024-02-21T12:15:06;9.87;;;1.67;;
17059;SDS011;8646;49.716;9.266;2024-02-21T12:18:10;5.57;;;1.57;;
17059;SDS011;8646;49.716;9.266;2024-02-21T12:21:14;7.90;;;1.97;;
17059;SDS011;8646;49.716;9.266;2024-02-21T12:24:21;4.70;;;1.50;;
17059;SDS011;8646;49.716;9.266;2024-02-21T12:27:25;8.57;;;1.53;;
17059;SDS011;8646;49.716;9.266;2024-02-21T12:30:27;6.70;;;1.67;;
17059;SDS011;8646;49.716;9.266;2024-02-21T12:33:32;11.30;;;2.00;;
17059;SDS011;8646;49.716;9.266;2024-02-21T12:36:40;6.10;;;1.60;;
17059;SDS011;8646;49.716;9.266;2024-02-21T12:39:44;8.20;;;1.63;;
17059;SDS011;8646;49.716;9.266;2024-02-21T12:42:46;8.93;;;2.17;;
17059;SDS011;8646;49.716;9.266;2024-02-21T12:45:49;10.60;;;1.80;;
17059;SDS011;8646;49.716;9.266;2024-02-21T12:48:52;7.40;;;1.80;;
17059;SDS011;8646;49.716;9.266;2024-02-21T12:51:56;9.93;;;2.20;;
17059;SDS011;8646;49.716;9.266;2024-02-21T12:54:59;8.53;;;1.70;;
17059;SDS011;8646;49.716;9.266;2024-02-21T12:58:03;10.23;;;2.17;;
17059;SDS011;8646;49.716;9.266;2024-02-21T13:01:06;10.20;;;1.60;;
17059;SDS011;8646;49.716;9.266;2024-02-21T13:04:10;9.03;;;2.43;;
17059;SDS011;8646;49.716;9.266;2024-02-21T13:07:15;6.43;;;1.73;;
17059;SDS011;8646;49.716;9.266;2024-02-21T13:10:17;9.47;;;1.90;;
17059;SDS011;8646;49.716;9.266;2024-02-21T13:13:20;6.63;;;1.70;;
17059;SDS011;8646;49.716;9.266;2024-02-21T13:16:23;4.73;;;2.00;;
17059;SDS011;8646;49.716;9.266;2024-02-21T13:19:27;5.67;;;1.60;;
17059;SDS011;8646;49.716;9.266;2024-02-21T13:22:32;7.07;;;2.10;;
17059;SDS011;8646;49.716;9.266;2024-02-21T13:25:35;10.47;;;2.07;;
17059;SDS011;8646;49.716;9.266;2024-02-21T13:28:37;7.20;;;2.00;;
17059;SDS011;8646;49.716;9.266;2024-02-21T13:31:40;4.20;;;1.50;;
17059;SDS011;8646;49.716;9.266;2024-02-21T13:34:43;9.73;;;2.43;;
17059;SDS011;8646;49.716;9.266;2024-02-21T13:37:47;6.33;;;1.90;;
17059;SDS011;8646;49.716;9.266;2024-02-21T13:40:51;8.57;;;1.77;;
17059;SDS011;8646;49.716;9.266;2024-02-21T13:43:55;9.17;;;2.00;;
17059;SDS011;8646;49.716;9.266;2024-02-21T13:46:58;6.23;;;1.77;;
17059;SDS011;8646;49.716;9.266;2024-02-21T13:50:00;7.90;;;3.17;;
17059;SDS011;8646;49.716;9.266;2024-02-21T13:53:07;9.07;;;3.83;;
17059;SDS011;8646;49.716;9.266;2024-02-21T13:56:10;7.67;;;1.80;;
17059;SDS011;8646;49.716;9.266;2024-02-21T13:59:13;8.13;;;1.97;;
17059;SDS011;8646;49.716;9.266;2024-02-21T14:02:18;6.60;;;1.53;;
17059;SDS011;8646;49.716;9.266;2024-02-21T14:05:21;9.07;;;1.60;;
17059;SDS011;8646;49.716;9.266;2024-02-21T14:08:25;7.50;;;1.70;;
17059;SDS011;8646;49.716;9.266;2024-02-21T14:11:28;6.90;;;1.53;;
17059;SDS011;8646;49.716;9.266;2024-02-21T14:14:32;7.80;;;1.50;;
17059;SDS011;8646;49.716;9.266;2024-02-21T14:17:38;5.17;;;1.60;;
17059;SDS011;8646;49.716;9.266;2024-02-21T14:20:41;6.73;;;1.67;;
17059;SDS011;8646;49.716;9.266;2024-02-21T14:23:45;10.57;;;2.27;;
17059;SDS011;8646;49.716;9.266;2024-02-21T14:26:48;5.70;;;1.50;;
17059;SDS011;8646;49.716;9.266;2024-02-21T14:29:50;8.10;;;2.10;;
17059;SDS011;8646;49.716;9.266;2024-02-21T14:32:54;7.97;;;2.00;;
17059;SDS011;8646;49.716;9.266;2024-02-21T14:35:57;10.07;;;3.90;;
17059;SDS011;8646;49.716;9.266;2024-02-21T14:39:02;7.03;;;2.00;;
17059;SDS011;8646;49.716;9.266;2024-02-21T14:42:06;7.27;;;2.20;;
17059;SDS011;8646;49.716;9.266;2024-02-21T14:45:10;13.23;;;4.63;;
17059;SDS011;8646;49.716;9.266;2024-02-21T14:48:15;9.90;;;2.33;;
17059;SDS011;8646;49.716;9.266;2024-02-21T14:51:18;5.70;;;1.60;;
17059;SDS011;8646;49.716;9.266;2024-02-21T14:54:23;6.43;;;1.73;;
17059;SDS011;8646;49.716;9.266;2024-02-21T14:57:25;5.83;;;1.50;;
17059;SDS011;8646;49.716;9.266;2024-02-21T15:00:28;8.23;;;1.93;;
17059;SDS011;8646;49.716;9.266;2024-02-21T15:03:32;7.07;;;1.47;;
17059;SDS011;8646;49.716;9.266;2024-02-21T15:06:35;7.40;;;1.60;;
17059;SDS011;8646;49.716;9.266;2024-02-21T15:09:40;19.87;;;10.00;;
17059;SDS011;8646;49.716;9.266;2024-02-21T15:12:43;6.97;;;2.23;;
17059;SDS011;8646;49.716;9.266;2024-02-21T15:15:47;6.03;;;2.20;;
17059;SDS011;8646;49.716;9.266;2024-02-21T15:18:50;7.30;;;2.83;;
17059;SDS011;8646;49.716;9.266;2024-02-21T15:21:53;8.03;;;1.70;;
17059;SDS011;8646;49.716;9.266;2024-02-21T15:24:57;5.73;;;2.90;;
17059;SDS011;8646;49.716;9.266;2024-02-21T15:27:59;14.07;;;2.60;;
17059;SDS011;8646;49.716;9.266;2024-02-21T15:31:04;9.73;;;3.00;;
17059;SDS011;8646;49.716;9.266;2024-02-21T15:34:06;10.17;;;2.40;;
17059;SDS011;8646;49.716;9.266;2024-02-21T15:37:09;6.00;;;1.70;;
17059;SDS011;8646;49.716;9.266;2024-02-21T15:40:14;5.47;;;1.40;;
17059;SDS011;8646;49.716;9.266;2024-02-21T15:43:17;8.17;;;2.30;;
17059;SDS011;8646;49.716;9.266;2024-02-21T15:46:20;6.27;;;2.17;;
17059;SDS011;8646;49.716;9.266;2024-02-21T15:49:22;6.47;;;2.93;;
17059;SDS011;8646;49.716;9.266;2024-02-21T15:52:26;6.70;;;2.30;;
17059;SDS011;8646;49.716;9.266;2024-02-21T15:55:30;8.43;;;1.50;;
17059;SDS011;8646;49.716;9.266;2024-02-21T15:58:33;6.77;;;1.90;;
17059;SDS011;8646;49.716;9.266;2024-02-21T16:01:36;13.87;;;2.80;;
17059;SDS011;8646;49.716;9.266;2024-02-21T16:04:40;6.23;;;3.20;;
17059;SDS011;8646;49.716;9.266;2024-02-21T16:07:43;6.83;;;2.83;;
17059;SDS011;8646;49.716;9.266;2024-02-21T16:10:47;8.93;;;2.27;;
17059;SDS011;8646;49.716;9.266;2024-02-21T16:13:50;7.60;;;2.37;;
17059;SDS011;8646;49.716;9.266;2024-02-21T16:16:54;7.43;;;1.60;;
17059;SDS011;8646;49.716;9.266;2024-02-21T16:19:58;4.13;;;1.20;;
17059;SDS011;8646;49.716;9.266;2024-02-21T16:23:02;6.83;;;2.10;;
17059;SDS011;8646;49.716;9.266;2024-02-21T16:26:07;4.57;;;1.63;;
17059;SDS011;8646;49.716;9.266;2024-02-21T16:29:11;9.13;;;1.60;;
17059;SDS011;8646;49.716;9.266;2024-02-21T16:32:15;6.37;;;1.80;;
17059;SDS011;8646;49.716;9.266;2024-02-21T16:35:19;5.90;;;1.50;;
17059;SDS011;8646;49.716;9.266;2024-02-21T16:38:22;10.93;;;2.17;;
17059;SDS011;8646;49.716;9.266;2024-02-21T16:41:29;7.83;;;1.63;;
17059;SDS011;8646;49.716;9.266;2024-02-21T16:44:31;5.20;;;1.47;;
17059;SDS011;8646;49.716;9.266;2024-02-21T16:47:34;5.13;;;1.70;;
17059;SDS011;8646;49.716;9.266;2024-02-21T16:50:37;4.40;;;1.30;;
17059;SDS011;8646;49.716;9.266;2024-02-21T16:53:53;5.97;;;1.53;;
17059;SDS011;8646;49.716;9.266;2024-02-21T16:56:57;7.30;;;3.40;;
17059;SDS011;8646;49.716;9.266;2024-02-21T17:00:00;8.33;;;3.37;;
17059;SDS011;8646;49.716;9.266;2024-02-21T17:03:08;7.80;;;2.77;;
17059;SDS011;8646;49.716;9.266;2024-02-21T17:06:12;11.73;;;4.80;;
17059;SDS011;8646;49.716;9.266;2024-02-21T17:09:18;8.93;;;3.63;;
17059;SDS011;8646;49.716;9.266;2024-02-21T17:12:23;8.93;;;3.50;;
17059;SDS011;8646;49.716;9.266;2024-02-21T17:15:25;5.27;;;1.90;;
17059;SDS011;8646;49.716;9.266;2024-02-21T17:18:28;8.43;;;2.87;;
17059;SDS011;8646;49.716;9.266;2024-02-21T17:21:31;8.37;;;1.93;;
17059;SDS011;8646;49.716;9.266;2024-02-21T17:24:34;8.83;;;2.30;;
17059;SDS011;8646;49.716;9.266;2024-02-21T17:27:38;5.77;;;2.47;;
17059;SDS011;8646;49.716;9.266;2024-02-21T17:30:41;9.13;;;2.70;;
17059;SDS011;8646;49.716;9.266;2024-02-21T17:33:44;9.90;;;2.20;;
17059;SDS011;8646;49.716;9.266;2024-02-21T17:36:47;12.47;;;2.10;;
17059;SDS011;8646;49.716;9.266;2024-02-21T17:39:50;9.90;;;2.90;;
17059;SDS011;8646;49.716;9.266;2024-02-21T17:42:55;7.03;;;2.50;;
17059;SDS011;8646;49.716;9.266;2024-02-21T17:45:59;7.17;;;2.57;;
17059;SDS011;8646;49.716;9.266;2024-02-21T17:49:02;13.37;;;2.23;;
17059;SDS011;8646;49.716;9.266;2024-02-21T17:52:05;7.20;;;1.73;;
17059;SDS011;8646;49.716;9.266;2024-02-21T17:55:08;13.27;;;4.20;;
17059;SDS011;8646;49.716;9.266;2024-02-21T17:58:15;9.27;;;3.50;;
17059;SDS011;8646;49.716;9.266;2024-02-21T18:01:18;301.47;;;21.13;;
17059;SDS011;8646;49.716;9.266;2024-02-21T18:04:20;403.27;;;26.67;;
17059;SDS011;8646;49.716;9.266;2024-02-21T18:07:24;77.17;;;7.10;;
17059;SDS011;8646;49.716;9.266;2024-02-21T18:10:27;47.90;;;6.30;;
17059;SDS011;8646;49.716;9.266;2024-02-21T18:13:34;59.97;;;12.03;;
17059;SDS011;8646;49.716;9.266;2024-02-21T18:16:36;42.77;;;7.97;;
17059;SDS011;8646;49.716;9.266;2024-02-21T18:19:40;27.93;;;7.07;;
17059;SDS011;8646;49.716;9.266;2024-02-21T18:22:43;13.07;;;3.20;;
17059;SDS011;8646;49.716;9.266;2024-02-21T18:25:46;15.47;;;3.03;;
17059;SDS011;8646;49.716;9.266;2024-02-21T18:28:51;13.70;;;2.50;;
17059;SDS011;8646;49.716;9.266;2024-02-21T18:31:54;9.10;;;2.60;;